Skip Navigation Links
NOAA logo - Click to go to the NOAA homepage
NOAA's National Weather Service
Alaska Aviation Weather Unit
  NWS logo - Click to go to the NWS homepage
Left Navbar Graphic     15 AKDT = 23 GMT

   
NOAA is celebrating 200 years of science, service, and stewardship. Visit the NOAA 200th celebration Web site to learn more.
USA.gov is the U.S. Government's official Web portal to all Federal, state and local government Web resources and services.
Facebook
NWS on Facebook

Important Change Regarding the AAWU Web Presence

 

Over the last several months, the AAWU has been working to navigate its webpages to a nationally supported server. Security, as well as other needs, have necessitated the change.  We have been given an extension for the site changeover while we diligently work at addressing feedback received. As of July 14, 2017, aawu.arh.noaa.gov will be discontinued. The new AAWU web address is weather.gov/aawu. It is now live and will run in-parallel with the old site until it is discontinued on July 14, 2017. Please continue to send any feedback or questions regarding the new webpages to nws.ar.aawu.webauthors@noaa.gov.  Thank you for your patience during this time of transition.
AAWU Home :: Display TAF Add Bookmark
TAF PAGY 192327Z 2000/2024  04008KT P6SM SCT040 BKN080
     FM200600 VRB04KT P6SM VCSH BKN050
     FM201500 20010KT P6SM -SHRA SCT015 BKN035 OVC050
      AMD LTD TO CLD VIS AND WIND=

7899
FTAK31 PAJN 192327
TAFAGS
TAF
METAR PAGY 191753Z AUTO 00000KT 10SM BKN080 06/M01 A2900 RMK AO2 SLP822
     T00611006 10067 20039 53005 TSNO=

METAR PAGY 191853Z AUTO 34003KT 10SM OVC075 07/M01 A2901 RMK AO2 SLP823
     T00721011 TSNO=

METAR PAGY 191953Z AUTO 05007KT 10SM BKN075 08/M01 A2901 RMK AO2 SLP824
     T00831011 TSNO=

METAR PAGY 192053Z AUTO 03007KT 10SM FEW050 BKN090 08/M01 A2902 RMK AO2
     SLP827 T00831011 53005 TSNO=

METAR PAGY 192153Z AUTO 04010KT 10SM OVC048 08/M01 A2903 RMK AO2 SLP830
     T00831011 TSNO=

METAR PAGY 192253Z AUTO VRB04KT 10SM OVC047 08/M01 A2904 RMK AO2 SLP835
     T00781006 TSNO=


NOAA's National Weather Service
Alaska Aviation Weather Unit
6930 Sand Lake Road
Anchorage, AK 99502-1845
Disclaimer
Credits
Glossary
Privacy Policy
About Us
Career Opportunities
Contact AAWU Internet Services Site last modified: April, 17th 2012